Cacilhas — VRUA8 — position and weather

sailwx.info

Track history (hours):
 
Tides and Currents Weather Stations Pressure Air Temp Water Temp Dewpoint Dewpoint Depression Visibility Wind Speed Wind Dir Waves Ship Positions

Cacilhas

Last reported at 2016-May-27 12:16 UTC. Time now 2016-May-27 14:18 UTC.
Position N 22°16' E 114°05'.

Length 29 m.

Type: Ship (hazmat cat D). MMSI: 477092000.

Date/timePositionNaut miles runAvg speedWind from/ knotsBaromVisibWave heightAir tempDewpointWater temp
2016-May-27 12:16N 22°16' E 114°05'5 6.4
2016-May-27 11:34N 22°17' E 114°09'3322.8
2016-May-27 10:06N 22°12' E 113°34'2935.8
2016-May-27 09:17N 22°16' E 114°05'4 6.0
2016-May-27 08:34N 22°17' E 114°09'19 9.3
2016-May-27 06:33N 22°12' E 113°50'1918.7
2016-May-27 05:34N 22°17' E 114°09'2020.1
2016-May-27 04:33N 22°11' E 113°48'1413.0
2016-May-27 03:31N 22°12' E 113°34'3334.7
2016-May-27 02:33N 22°17' E 114°09'1918.8
2016-May-27 01:33N 22°11' E 113°50'1513.7
2016-May-27 00:29N 22°11' E 113°34'3336.0
2016-May-26 23:33N 22°17' E 114°09'0 0.0
2016-May-26 22:33N 22°17' E 114°09'0 0.0
2016-May-26 21:33N 22°17' E 114°09'0 0.0
2016-May-26 20:33N 22°17' E 114°09'0 0.0
2016-May-26 19:33N 22°17' E 114°09'0 0.0
2016-May-26 18:33N 22°17' E 114°09'4 1.5
2016-May-26 16:14N 22°17' E 114°05'3 5.1
2016-May-26 15:34N 22°17' E 114°09'4 1.3
2016-May-26 12:16N 22°16' E 114°05'4 6.3
2016-May-26 11:33N 22°17' E 114°09'4 1.7
2016-May-26 09:16N 22°16' E 114°05'4 5.4
2016-May-26 08:34N 22°17' E 114°09'4 1.8
2016-May-26 06:14N 22°16' E 114°05'4 6.2
2016-May-26 05:33N 22°17' E 114°09'22 9.4
2016-May-26 03:12N 22°12' E 113°46'2234.4
2016-May-26 02:33N 22°17' E 114°09'2121.1
2016-May-26 01:33N 22°11' E 113°47'1211.5
2016-May-26 00:30N 22°11' E 113°34'3335.0
2016-May-25 23:33N 22°17' E 114°09'0 0.0
2016-May-25 22:33N 22°17' E 114°09'0 0.0
2016-May-25 21:33N 22°17' E 114°09'0 0.0
2016-May-25 20:33N 22°17' E 114°09'0 0.0
2016-May-25 19:34N 22°17' E 114°09'0 0.1
2016-May-25 18:33N 22°17' E 114°09'3322.7
2016-May-25 17:06N 22°12' E 113°34'1527.9
2016-May-25 16:33N 22°12' E 113°50'1918.7
2016-May-25 15:33N 22°17' E 114°09'0 0.2
2016-May-25 14:34N 22°18' E 114°09'0 0.2
2016-May-25 13:34N 22°17' E 114°09'0 0.0
2016-May-25 12:33N 22°17' E 114°09'0 0.3
2016-May-25 11:34N 22°17' E 114°09'5 2.1
2016-May-25 09:18N 22°15' E 114°04'5 6.6
2016-May-25 08:34N 22°17' E 114°09'3 1.4
2016-May-25 06:13N 22°17' E 114°05'3 5.1
2016-May-25 05:33N 22°17' E 114°09'1818.3
2016-May-25 04:33N 22°11' E 113°50'1514.0
2016-May-25 03:29N 22°11' E 113°34'3335.3
2016-May-25 02:33N 22°17' E 114°09'0 0.0
2016-May-24 23:33N 22°17' E 114°09'0 0.1
2016-May-24 22:33N 22°17' E 114°09'0 0.0
2016-May-24 21:33N 22°17' E 114°09'0 0.0
2016-May-24 20:33N 22°17' E 114°09'0 0.0
2016-May-24 19:33N 22°17' E 114°09'0 0.0
2016-May-24 18:33N 22°17' E 114°09'0 0.0
2016-May-24 17:33N 22°17' E 114°09'0 0.0
2016-May-24 16:33N 22°17' E 114°09'4 1.3
2016-May-24 13:16N 22°16' E 114°05'4 6.2
2016-May-24 12:34N 22°17' E 114°09'5 2.0
2016-May-24 10:16N 22°16' E 114°05'5 6.4
2016-May-24 09:33N 22°17' E 114°09'5 2.0
2016-May-24 07:15N 22°16' E 114°04'5 6.7
2016-May-24 06:33N 22°17' E 114°09'0 0.0
2016-May-24 03:31N 22°17' E 114°09'0 0.0
2016-May-24 00:34N 22°17' E 114°09'0 0.0
2016-May-23 17:34N 22°17' E 114°09'0 0.0
2016-May-23 13:34N 22°17' E 114°09'0 0.0
2016-May-23 10:33N 22°17' E 114°09'0 0.0
2016-May-23 07:33N 22°17' E 114°09'4 1.4
2016-May-23 04:15N 22°16' E 114°04'5 6.4
2016-May-23 03:33N 22°17' E 114°09'6 2.6
2016-May-23 01:18N 22°15' E 114°03'6 8.0
2016-May-23 00:34N 22°17' E 114°09'5 2.4
2016-May-22 22:18N 22°15' E 114°04'5 7.2
2016-May-22 21:33N 22°17' E 114°09'0 0.0
2016-May-22 18:34N 22°17' E 114°09'0 0.0
2016-May-22 17:33N 22°17' E 114°09'4 1.9
2016-May-22 15:17N 22°16' E 114°05'4 6.2
2016-May-22 14:34N 22°17' E 114°09'0 0.0
2016-May-22 13:34N 22°17' E 114°09'5 2.0
2016-May-22 11:16N 22°16' E 114°05'5 6.5
2016-May-22 10:33N 22°17' E 114°09'5 2.2
2016-May-22 08:16N 22°15' E 114°04'5 7.2
2016-May-22 07:33N 22°17' E 114°09'4 1.9
2016-May-22 05:16N 22°16' E 114°05'4 5.9
2016-May-22 04:33N 22°17' E 114°09'0 0.0
2016-May-22 01:34N 22°17' E 114°09'33 4.7
2016-May-21 18:30N 22°11' E 113°34'3335.7
2016-May-21 17:34N 22°17' E 114°09'1918.3
2016-May-21 16:32N 22°11' E 113°50'15 7.4
2016-May-21 14:29N 22°12' E 113°34'3336.0
2016-May-21 13:34N 22°17' E 114°09'1817.5
2016-May-21 12:33N 22°11' E 113°51'1615.2
2016-May-21 11:30N 22°11' E 113°34'3335.2
2016-May-21 10:34N 22°17' E 114°09'1818.0
2016-May-21 09:33N 22°11' E 113°51'1615.2
2016-May-21 08:31N 22°11' E 113°34'3334.2
2016-May-21 07:33N 22°17' E 114°09'1818.0
2016-May-21 06:33N 22°11' E 113°51'12 5.6
2016-May-21 04:20N 22°15' E 114°03'6 7.5
2016-May-21 03:33N 22°17' E 114°09'5 2.4
2016-May-21 01:17N 22°15' E 114°04'5 7.4
2016-May-21 00:33N 22°17' E 114°09'33 5.4
2016-May-20 18:27N 22°11' E 113°34'3337.7
2016-May-20 17:34N 22°17' E 114°09'2019.5
2016-May-20 16:33N 22°11' E 113°49'9 8.5
2016-May-20 15:29N 22°11' E 113°40'2830.6
2016-May-20 14:33N 22°17' E 114°09'2927.6
2016-May-20 13:31N 22°11' E 113°39'5 4.9
2016-May-20 12:31N 22°11' E 113°34'3334.1
2016-May-20 11:33N 22°17' E 114°09'1918.3
2016-May-20 10:32N 22°11' E 113°50'14 0.7
2016-May-19 13:16N 22°16' E 114°04'5 6.5
2016-May-19 12:34N 22°17' E 114°09'18 9.2
2016-May-19 10:34N 22°12' E 113°50'1818.3
2016-May-19 09:33N 22°17' E 114°09'3322.2
2016-May-19 08:04N 22°12' E 113°34'2937.6
2016-May-19 07:18N 22°16' E 114°05'4 6.1
2016-May-19 06:33N 22°17' E 114°09'2812.5
2016-May-19 04:20N 22°11' E 113°40'2835.8
2016-May-19 03:33N 22°17' E 114°09'1818.0
2016-May-19 02:33N 22°11' E 113°51'1615.6
2016-May-19 01:32N 22°12' E 113°34'3333.9
2016-May-19 00:33N 22°17' E 114°09'1917.9
2016-May-18 23:31N 22°11' E 113°50'1 0.2
2016-May-18 17:33N 22°11' E 113°51'1717.4
2016-May-18 16:33N 22°17' E 114°09'3316.1
2016-May-18 14:30N 22°11' E 113°34'3334.9
2016-May-18 13:34N 22°17' E 114°09'1817.2
2016-May-18 12:32N 22°11' E 113°51'1616.6
2016-May-18 11:33N 22°11' E 113°34'3333.3
2016-May-18 10:34N 22°17' E 114°09'1918.2
2016-May-18 09:32N 22°11' E 113°50'1515.4
2016-May-18 08:32N 22°12' E 113°34'3334.0
2016-May-18 07:33N 22°17' E 114°09'1919.4
2016-May-18 06:33N 22°11' E 113°49'14 6.4
2016-May-18 04:19N 22°15' E 114°04'4 5.6
2016-May-18 03:34N 22°18' E 114°08'4 1.8
2016-May-18 01:17N 22°16' E 114°04'5 6.6
2016-May-18 00:33N 22°17' E 114°09'33 5.4
2016-May-17 18:27N 22°11' E 113°34'3337.5
2016-May-17 17:33N 22°17' E 114°09'1817.9
2016-May-17 16:33N 22°11' E 113°51'14 4.3
2016-May-17 13:15N 22°17' E 114°05'4 5.2
2016-May-17 12:33N 22°17' E 114°09'  
Track history (hours):
 
Tides and Currents Weather Stations Pressure Air Temp Water Temp Dewpoint Dewpoint Depression Visibility Wind Speed Wind Dir Waves Ship Positions

Cacilhas

Last reported at 2016-May-27 12:16 UTC. Time now 2016-May-27 14:18 UTC.
Position N 22°16' E 114°05'.

Length 29 m.

Type: Ship (hazmat cat D). MMSI: 477092000.

Date/timePositionNaut miles runAvg speedWind from/ knotsBaromVisibWave heightAir tempDewpointWater temp
2016-May-27 12:16N 22°16' E 114°05'5 6.4
2016-May-27 11:34N 22°17' E 114°09'3322.8
2016-May-27 10:06N 22°12' E 113°34'2935.8
2016-May-27 09:17N 22°16' E 114°05'4 6.0
2016-May-27 08:34N 22°17' E 114°09'19 9.3
2016-May-27 06:33N 22°12' E 113°50'1918.7
2016-May-27 05:34N 22°17' E 114°09'2020.1
2016-May-27 04:33N 22°11' E 113°48'1413.0
2016-May-27 03:31N 22°12' E 113°34'3334.7
2016-May-27 02:33N 22°17' E 114°09'1918.8
2016-May-27 01:33N 22°11' E 113°50'1513.7
2016-May-27 00:29N 22°11' E 113°34'3336.0
2016-May-26 23:33N 22°17' E 114°09'0 0.0
2016-May-26 22:33N 22°17' E 114°09'0 0.0
2016-May-26 21:33N 22°17' E 114°09'0 0.0
2016-May-26 20:33N 22°17' E 114°09'0 0.0
2016-May-26 19:33N 22°17' E 114°09'0 0.0
2016-May-26 18:33N 22°17' E 114°09'4 1.5
2016-May-26 16:14N 22°17' E 114°05'3 5.1
2016-May-26 15:34N 22°17' E 114°09'4 1.3
2016-May-26 12:16N 22°16' E 114°05'4 6.3
2016-May-26 11:33N 22°17' E 114°09'4 1.7
2016-May-26 09:16N 22°16' E 114°05'4 5.4
2016-May-26 08:34N 22°17' E 114°09'4 1.8
2016-May-26 06:14N 22°16' E 114°05'4 6.2
2016-May-26 05:33N 22°17' E 114°09'22 9.4
2016-May-26 03:12N 22°12' E 113°46'2234.4
2016-May-26 02:33N 22°17' E 114°09'2121.1
2016-May-26 01:33N 22°11' E 113°47'1211.5
2016-May-26 00:30N 22°11' E 113°34'3335.0
2016-May-25 23:33N 22°17' E 114°09'0 0.0
2016-May-25 22:33N 22°17' E 114°09'0 0.0
2016-May-25 21:33N 22°17' E 114°09'0 0.0
2016-May-25 20:33N 22°17' E 114°09'0 0.0
2016-May-25 19:34N 22°17' E 114°09'0 0.1
2016-May-25 18:33N 22°17' E 114°09'3322.7
2016-May-25 17:06N 22°12' E 113°34'1527.9
2016-May-25 16:33N 22°12' E 113°50'1918.7
2016-May-25 15:33N 22°17' E 114°09'0 0.2
2016-May-25 14:34N 22°18' E 114°09'0 0.2
2016-May-25 13:34N 22°17' E 114°09'0 0.0
2016-May-25 12:33N 22°17' E 114°09'0 0.3
2016-May-25 11:34N 22°17' E 114°09'5 2.1
2016-May-25 09:18N 22°15' E 114°04'5 6.6
2016-May-25 08:34N 22°17' E 114°09'3 1.4
2016-May-25 06:13N 22°17' E 114°05'3 5.1
2016-May-25 05:33N 22°17' E 114°09'1818.3
2016-May-25 04:33N 22°11' E 113°50'1514.0
2016-May-25 03:29N 22°11' E 113°34'3335.3
2016-May-25 02:33N 22°17' E 114°09'0 0.0
2016-May-24 23:33N 22°17' E 114°09'0 0.1
2016-May-24 22:33N 22°17' E 114°09'0 0.0
2016-May-24 21:33N 22°17' E 114°09'0 0.0
2016-May-24 20:33N 22°17' E 114°09'0 0.0
2016-May-24 19:33N 22°17' E 114°09'0 0.0
2016-May-24 18:33N 22°17' E 114°09'0 0.0
2016-May-24 17:33N 22°17' E 114°09'0 0.0
2016-May-24 16:33N 22°17' E 114°09'4 1.3
2016-May-24 13:16N 22°16' E 114°05'4 6.2
2016-May-24 12:34N 22°17' E 114°09'5 2.0
2016-May-24 10:16N 22°16' E 114°05'5 6.4
2016-May-24 09:33N 22°17' E 114°09'5 2.0
2016-May-24 07:15N 22°16' E 114°04'5 6.7
2016-May-24 06:33N 22°17' E 114°09'0 0.0
2016-May-24 03:31N 22°17' E 114°09'0 0.0
2016-May-24 00:34N 22°17' E 114°09'0 0.0
2016-May-23 17:34N 22°17' E 114°09'0 0.0
2016-May-23 13:34N 22°17' E 114°09'0 0.0
2016-May-23 10:33N 22°17' E 114°09'0 0.0
2016-May-23 07:33N 22°17' E 114°09'4 1.4
2016-May-23 04:15N 22°16' E 114°04'5 6.4
2016-May-23 03:33N 22°17' E 114°09'6 2.6
2016-May-23 01:18N 22°15' E 114°03'6 8.0
2016-May-23 00:34N 22°17' E 114°09'5 2.4
2016-May-22 22:18N 22°15' E 114°04'5 7.2
2016-May-22 21:33N 22°17' E 114°09'0 0.0
2016-May-22 18:34N 22°17' E 114°09'0 0.0
2016-May-22 17:33N 22°17' E 114°09'4 1.9
2016-May-22 15:17N 22°16' E 114°05'4 6.2
2016-May-22 14:34N 22°17' E 114°09'0 0.0
2016-May-22 13:34N 22°17' E 114°09'5 2.0
2016-May-22 11:16N 22°16' E 114°05'5 6.5
2016-May-22 10:33N 22°17' E 114°09'5 2.2
2016-May-22 08:16N 22°15' E 114°04'5 7.2
2016-May-22 07:33N 22°17' E 114°09'4 1.9
2016-May-22 05:16N 22°16' E 114°05'4 5.9
2016-May-22 04:33N 22°17' E 114°09'0 0.0
2016-May-22 01:34N 22°17' E 114°09'33 4.7
2016-May-21 18:30N 22°11' E 113°34'3335.7
2016-May-21 17:34N 22°17' E 114°09'1918.3
2016-May-21 16:32N 22°11' E 113°50'15 7.4
2016-May-21 14:29N 22°12' E 113°34'3336.0
2016-May-21 13:34N 22°17' E 114°09'1817.5
2016-May-21 12:33N 22°11' E 113°51'1615.2
2016-May-21 11:30N 22°11' E 113°34'3335.2
2016-May-21 10:34N 22°17' E 114°09'1818.0
2016-May-21 09:33N 22°11' E 113°51'1615.2
2016-May-21 08:31N 22°11' E 113°34'3334.2
2016-May-21 07:33N 22°17' E 114°09'1818.0
2016-May-21 06:33N 22°11' E 113°51'12 5.6
2016-May-21 04:20N 22°15' E 114°03'6 7.5
2016-May-21 03:33N 22°17' E 114°09'5 2.4
2016-May-21 01:17N 22°15' E 114°04'5 7.4
2016-May-21 00:33N 22°17' E 114°09'33 5.4
2016-May-20 18:27N 22°11' E 113°34'3337.7
2016-May-20 17:34N 22°17' E 114°09'2019.5
2016-May-20 16:33N 22°11' E 113°49'9 8.5
2016-May-20 15:29N 22°11' E 113°40'2830.6
2016-May-20 14:33N 22°17' E 114°09'2927.6
2016-May-20 13:31N 22°11' E 113°39'5 4.9
2016-May-20 12:31N 22°11' E 113°34'3334.1
2016-May-20 11:33N 22°17' E 114°09'1918.3
2016-May-20 10:32N 22°11' E 113°50'14 0.7
2016-May-19 13:16N 22°16' E 114°04'5 6.5
2016-May-19 12:34N 22°17' E 114°09'18 9.2
2016-May-19 10:34N 22°12' E 113°50'1818.3
2016-May-19 09:33N 22°17' E 114°09'3322.2
2016-May-19 08:04N 22°12' E 113°34'2937.6
2016-May-19 07:18N 22°16' E 114°05'4 6.1
2016-May-19 06:33N 22°17' E 114°09'2812.5
2016-May-19 04:20N 22°11' E 113°40'2835.8
2016-May-19 03:33N 22°17' E 114°09'1818.0
2016-May-19 02:33N 22°11' E 113°51'1615.6
2016-May-19 01:32N 22°12' E 113°34'3333.9
2016-May-19 00:33N 22°17' E 114°09'1917.9
2016-May-18 23:31N 22°11' E 113°50'1 0.2
2016-May-18 17:33N 22°11' E 113°51'1717.4
2016-May-18 16:33N 22°17' E 114°09'3316.1
2016-May-18 14:30N 22°11' E 113°34'3334.9
2016-May-18 13:34N 22°17' E 114°09'1817.2
2016-May-18 12:32N 22°11' E 113°51'1616.6
2016-May-18 11:33N 22°11' E 113°34'3333.3
2016-May-18 10:34N 22°17' E 114°09'1918.2
2016-May-18 09:32N 22°11' E 113°50'1515.4
2016-May-18 08:32N 22°12' E 113°34'3334.0
2016-May-18 07:33N 22°17' E 114°09'1919.4
2016-May-18 06:33N 22°11' E 113°49'14 6.4
2016-May-18 04:19N 22°15' E 114°04'4 5.6
2016-May-18 03:34N 22°18' E 114°08'4 1.8
2016-May-18 01:17N 22°16' E 114°04'5 6.6
2016-May-18 00:33N 22°17' E 114°09'33 5.4
2016-May-17 18:27N 22°11' E 113°34'3337.5
2016-May-17 17:33N 22°17' E 114°09'1817.9
2016-May-17 16:33N 22°11' E 113°51'14 4.3
2016-May-17 13:15N 22°17' E 114°05'4 5.2
2016-May-17 12:33N 22°17' E 114°09'  

Dump ship's entire track history